Terminal Aerodrome Forecast
Issued by NWS

Home | Current Version | Previous Version | Text Only | Print | Product List | Glossary On
Versions: 1 2 3 4 5 6 7 8 9 10 11 12 13 14 15 16 17
000
FTUS43 KTOP 231700 CCA
TAFMHK
TAF COR
KMHK 231756Z 2318/2418 05012KT P6SM FEW120 BKN250
     FM240100 08005KT P6SM SCT100
     FM241400 14010KT P6SM SCT250=

USA.gov is the U.S. government's official web portal to all federal, state and local government web resources and services.